Track серженко ирина

Time Latitude Longitude Accuracy (66% radius in meters) Altitude (meters) Speed (km/hour) Bearing (degrees) Battery (%) GPS flag
10:11:46 44.637751 39.185764 12 112.22860372765 0 50.25866317749 68 1 delete
10:11:35 44.637751 39.185764 16 112.45605233047 0 50.25866317749 68 1 delete
10:11:24 44.637757 39.185778 16 112.11579597843 0 50.25866317749 68 1 delete
10:11:13 44.637757 39.185778 8 112.08791355838 0 50.25866317749 68 1 delete
10:11:02 44.637760 39.185780 32 113.53001934446 0 50.25866317749 68 1 delete
10:10:51 44.637762 39.185777 24 114.7684741882 0 65.011215209961 68 1 delete
10:10:40 44.637754 39.185751 24 113.80857375416 0 109.84643554688 68 1 delete
10:10:29 44.637758 39.185692 24 111.79191712934 0 109.84643554688 68 1 delete
10:10:17 44.637781 39.185713 24 107.30046841772 0 109.84643554688 68 1 delete
10:10:06 44.637785 39.185714 16 106.54046273604 0 109.84643554688 68 1 delete
10:09:56 44.637789 39.185686 12 106.40805953671 0 109.84643554688 68 1 delete
10:09:45 44.637788 39.185660 24 106.38126388706 0 305.63214111328 68 1 delete
10:09:34 44.637782 39.185661 16 107.19497337122 0 305.63214111328 68 1 delete
10:09:23 44.637782 39.185661 12 107.6938799978 0 305.63214111328 68 1 delete
10:09:12 44.637782 39.185661 24 107.29891243354 0 305.63214111328 68 1 delete
10:09:01 44.637759 39.185705 16 107.18857876007 0 31.51056098938 68 1 delete
10:08:58 44.637759 39.185705 12 107.27059882778 1.0409418344498 31.51056098938 68 1 delete
10:08:50 44.637746 39.185696 16 106.85447870022 0 277.66455078125 68 1 delete
10:08:39 44.637715 39.185707 16 107.47890601604 0 277.66455078125 68 1 delete
10:08:28 44.637664 39.185723 24 109.11428614788 0.90961086750031 353.90707397461 68 1 delete
10:08:17 44.637611 39.185728 12 109.44475604738 0 18.213203430176 68 1 delete
10:08:06 44.637549 39.185702 24 110.75775795154 0 17.40637588501 68 1 delete
10:08:05 44.637549 39.185702 12 110.76243178837 1.1242429018021 17.40637588501 68 1 delete
10:08:00 44.637475 39.185631 16 111.64803349525 1.6111583709717 347.16799926758 68 1 delete
10:07:58 44.637356 39.185666 24 112.19097204429 1.8040844202042 357.41354370117 68 1 delete
10:07:55 44.637254 39.185671 24 112.88322000885 0 339.97116088867 68 1 delete
10:07:49 44.637238 39.185671 16 113.48674572413 1.1142617464066 339.97116088867 68 1 delete
10:07:44 44.637180 39.185702 12 114.45545294355 0 14.344923973083 68 1 delete
10:07:38 44.637150 39.185714 24 114.96017648531 1.9936407804489 345.79022216797 68 1 delete
10:07:36 44.636994 39.185770 24 115.37798411691 1.5694279670715 347.5334777832 68 1 delete
10:07:33 44.636900 39.185799 16 116.13706699389 1.5332562923431 339.73510742188 68 1 delete
10:07:32 44.636866 39.185816 12 116.36837970781 0 329.02160644531 68 1 delete
10:07:29 44.636768 39.185893 16 116.56496371984 0.98695182800293 348.61639404297 68 1 delete
10:07:21 44.636723 39.185980 12 117.42259611736 0 185.4308013916 68 1 delete
10:07:11 44.636705 39.185984 24 117.80324003849 0 185.4308013916 68 1 delete
10:06:59 44.636707 39.185994 16 118.14531660366 0 311.55575561523 75 1 delete
10:06:55 44.636636 39.186079 16 118.16879044666 0 291.8659362793 75 1 delete
10:06:51 44.636569 39.186206 24 118.39178754725 0 278.19662475586 75 1 delete
10:06:48 44.636512 39.186349 16 118.63415149287 0 213.04037475586 75 1 delete
10:06:45 44.636526 39.186373 16 119.08834266733 1.9924027919769 253.50248718262 75 1 delete
10:06:37 44.636534 39.186445 8 119.32923523122 1.4693491458893 233.05766296387 75 1 delete
10:06:30 44.636514 39.186521 16 119.9070515787 0 246.64723205566 75 1 delete
10:06:26 44.636474 39.186666 16 119.92764469959 0 211.16786193848 75 1 delete
10:06:16 44.636478 39.186742 8 119.3051777324 0 263.58224487305 75 1 delete
10:06:09 44.636460 39.186793 24 118.93941348351 0 296.63070678711 75 1 delete
10:06:06 44.636394 39.186884 16 118.77031146689 0.98758327960968 302.57458496094 75 1 delete
10:06:04 44.636371 39.186940 12 118.83840265983 0.9275911450386 280.98858642578 75 1 delete
10:05:58 44.636365 39.187007 24 118.67227632998 0.92083585262299 297.77975463867 75 1 delete
10:05:53 44.636280 39.187128 12 118.26867708331 0 355.86587524414 75 1 delete
10:05:46 44.636208 39.187221 24 118.2223485799 0 291.84857177734 75 1 delete